sensor_id;sensor_type;location;lat;lon;timestamp;pressure;altitude;pressure_sealevel;temperature;humidity
22755;BME280;11544;42.020;23.094;2022-09-28T00:00:08;96278.88;;;15.67;100.00
22755;BME280;11544;42.020;23.094;2022-09-28T00:02:37;96285.41;;;15.23;100.00
22755;BME280;11544;42.020;23.094;2022-09-28T00:05:03;96275.91;;;15.84;100.00
22755;BME280;11544;42.020;23.094;2022-09-28T00:07:29;96273.75;;;15.40;100.00
22755;BME280;11544;42.020;23.094;2022-09-28T00:09:55;96284.06;;;15.17;100.00
22755;BME280;11544;42.020;23.094;2022-09-28T00:12:20;96277.22;;;15.02;100.00
22755;BME280;11544;42.020;23.094;2022-09-28T00:14:47;96283.31;;;15.15;100.00
22755;BME280;11544;42.020;23.094;2022-09-28T00:17:13;96269.03;;;14.94;100.00
22755;BME280;11544;42.020;23.094;2022-09-28T00:19:41;96285.00;;;15.03;100.00
22755;BME280;11544;42.020;23.094;2022-09-28T00:22:08;96282.38;;;15.03;100.00
22755;BME280;11544;42.020;23.094;2022-09-28T00:24:34;96281.53;;;15.16;100.00
22755;BME280;11544;42.020;23.094;2022-09-28T00:27:00;96277.88;;;15.06;100.00
22755;BME280;11544;42.020;23.094;2022-09-28T00:29:29;96281.34;;;15.19;100.00
22755;BME280;11544;42.020;23.094;2022-09-28T00:32:08;96268.00;;;14.96;100.00
22755;BME280;11544;42.020;23.094;2022-09-28T00:34:39;96263.28;;;15.01;100.00
22755;BME280;11544;42.020;23.094;2022-09-28T00:37:11;96276.09;;;14.93;100.00
22755;BME280;11544;42.020;23.094;2022-09-28T00:39:38;96274.91;;;14.97;100.00
22755;BME280;11544;42.020;23.094;2022-09-28T00:42:18;96281.13;;;14.84;100.00
22755;BME280;11544;42.020;23.094;2022-09-28T00:44:51;96282.88;;;14.83;100.00
22755;BME280;11544;42.020;23.094;2022-09-28T00:55:16;96259.06;;;15.12;100.00
22755;BME280;11544;42.020;23.094;2022-09-28T00:57:48;96247.84;;;15.10;100.00
22755;BME280;11544;42.020;23.094;2022-09-28T01:00:16;96246.06;;;15.10;100.00
22755;BME280;11544;42.020;23.094;2022-09-28T01:02:43;96249.00;;;14.80;100.00
22755;BME280;11544;42.020;23.094;2022-09-28T01:05:10;96250.13;;;14.63;100.00
22755;BME280;11544;42.020;23.094;2022-09-28T01:07:37;96251.75;;;14.51;100.00
22755;BME280;11544;42.020;23.094;2022-09-28T01:10:04;96255.13;;;14.53;100.00
22755;BME280;11544;42.020;23.094;2022-09-28T01:12:30;96255.16;;;14.66;100.00
22755;BME280;11544;42.020;23.094;2022-09-28T01:14:57;96260.91;;;14.31;100.00
22755;BME280;11544;42.020;23.094;2022-09-28T01:17:32;96262.31;;;14.37;100.00
22755;BME280;11544;42.020;23.094;2022-09-28T01:28:20;96270.47;;;14.32;100.00
22755;BME280;11544;42.020;23.094;2022-09-28T01:31:08;96270.19;;;14.37;100.00
22755;BME280;11544;42.020;23.094;2022-09-28T01:33:44;96265.25;;;14.45;100.00
22755;BME280;11544;42.020;23.094;2022-09-28T01:36:16;96269.44;;;14.35;100.00
22755;BME280;11544;42.020;23.094;2022-09-28T01:38:55;96275.22;;;14.40;100.00
22755;BME280;11544;42.020;23.094;2022-09-28T01:41:25;96271.75;;;14.12;100.00
22755;BME280;11544;42.020;23.094;2022-09-28T01:43:55;96280.31;;;14.29;100.00
22755;BME280;11544;42.020;23.094;2022-09-28T01:46:32;96279.84;;;14.49;100.00
22755;BME280;11544;42.020;23.094;2022-09-28T01:49:06;96273.56;;;14.52;100.00
22755;BME280;11544;42.020;23.094;2022-09-28T01:51:39;96265.94;;;14.61;100.00
22755;BME280;11544;42.020;23.094;2022-09-28T01:54:20;96251.81;;;14.77;100.00
22755;BME280;11544;42.020;23.094;2022-09-28T01:57:08;96258.31;;;14.71;100.00
22755;BME280;11544;42.020;23.094;2022-09-28T01:59:41;96257.50;;;14.44;100.00
22755;BME280;11544;42.020;23.094;2022-09-28T02:02:15;96263.22;;;14.23;100.00
22755;BME280;11544;42.020;23.094;2022-09-28T02:04:53;96266.47;;;14.00;100.00
22755;BME280;11544;42.020;23.094;2022-09-28T02:07:37;96269.13;;;14.12;100.00
22755;BME280;11544;42.020;23.094;2022-09-28T02:10:09;96274.28;;;13.87;100.00
22755;BME280;11544;42.020;23.094;2022-09-28T02:12:42;96274.22;;;14.28;100.00
22755;BME280;11544;42.020;23.094;2022-09-28T02:15:19;96277.25;;;14.22;100.00
22755;BME280;11544;42.020;23.094;2022-09-28T02:17:45;96270.66;;;14.02;100.00
22755;BME280;11544;42.020;23.094;2022-09-28T02:20:14;96273.38;;;14.01;100.00
22755;BME280;11544;42.020;23.094;2022-09-28T02:22:46;96274.16;;;14.43;100.00
22755;BME280;11544;42.020;23.094;2022-09-28T02:28:06;96274.88;;;14.05;100.00
22755;BME280;11544;42.020;23.094;2022-09-28T02:30:35;96269.63;;;14.05;100.00
22755;BME280;11544;42.020;23.094;2022-09-28T02:33:23;96287.38;;;14.14;100.00
22755;BME280;11544;42.020;23.094;2022-09-28T02:35:50;96284.91;;;14.25;100.00
22755;BME280;11544;42.020;23.094;2022-09-28T02:38:17;96288.13;;;14.16;100.00
22755;BME280;11544;42.020;23.094;2022-09-28T02:40:54;96287.25;;;13.88;100.00
22755;BME280;11544;42.020;23.094;2022-09-28T02:46:51;96285.19;;;13.93;100.00
22755;BME280;11544;42.020;23.094;2022-09-28T02:49:28;96276.72;;;13.75;100.00
22755;BME280;11544;42.020;23.094;2022-09-28T02:52:19;96283.84;;;14.15;100.00
22755;BME280;11544;42.020;23.094;2022-09-28T02:55:12;96278.53;;;13.61;100.00
22755;BME280;11544;42.020;23.094;2022-09-28T03:00:36;96284.03;;;13.70;100.00
22755;BME280;11544;42.020;23.094;2022-09-28T03:03:28;96288.72;;;13.80;100.00
22755;BME280;11544;42.020;23.094;2022-09-28T03:06:00;96293.38;;;13.74;100.00
22755;BME280;11544;42.020;23.094;2022-09-28T03:08:39;96284.69;;;13.60;100.00
22755;BME280;11544;42.020;23.094;2022-09-28T03:12:03;96293.00;;;13.81;100.00
22755;BME280;11544;42.020;23.094;2022-09-28T03:14:03;96282.88;;;13.74;100.00
22755;BME280;11544;42.020;23.094;2022-09-28T03:16:44;96288.25;;;13.73;100.00
22755;BME280;11544;42.020;23.094;2022-09-28T03:19:11;96285.38;;;13.63;100.00
22755;BME280;11544;42.020;23.094;2022-09-28T03:21:37;96280.94;;;13.78;100.00
22755;BME280;11544;42.020;23.094;2022-09-28T03:24:03;96284.56;;;14.17;100.00
22755;BME280;11544;42.020;23.094;2022-09-28T03:26:31;96272.34;;;14.30;100.00
22755;BME280;11544;42.020;23.094;2022-09-28T03:28:57;96267.00;;;14.05;100.00
22755;BME280;11544;42.020;23.094;2022-09-28T03:31:24;96285.34;;;13.77;100.00
22755;BME280;11544;42.020;23.094;2022-09-28T03:33:50;96288.63;;;14.08;100.00
22755;BME280;11544;42.020;23.094;2022-09-28T03:36:16;96297.44;;;13.93;100.00
22755;BME280;11544;42.020;23.094;2022-09-28T03:38:42;96301.41;;;13.86;100.00
22755;BME280;11544;42.020;23.094;2022-09-28T03:41:09;96311.13;;;13.84;100.00
22755;BME280;11544;42.020;23.094;2022-09-28T03:43:38;96316.38;;;14.25;100.00
22755;BME280;11544;42.020;23.094;2022-09-28T03:46:04;96307.94;;;13.93;100.00
22755;BME280;11544;42.020;23.094;2022-09-28T03:48:36;96316.41;;;14.38;100.00
22755;BME280;11544;42.020;23.094;2022-09-28T03:51:05;96309.88;;;14.04;100.00
22755;BME280;11544;42.020;23.094;2022-09-28T03:53:34;96327.69;;;13.98;100.00
22755;BME280;11544;42.020;23.094;2022-09-28T03:56:09;96326.69;;;13.87;100.00
22755;BME280;11544;42.020;23.094;2022-09-28T03:58:37;96327.91;;;13.67;100.00
22755;BME280;11544;42.020;23.094;2022-09-28T04:01:06;96334.84;;;14.09;100.00
22755;BME280;11544;42.020;23.094;2022-09-28T04:03:33;96342.38;;;14.28;100.00
22755;BME280;11544;42.020;23.094;2022-09-28T04:05:58;96342.00;;;14.89;100.00
22755;BME280;11544;42.020;23.094;2022-09-28T04:08:24;96344.13;;;15.35;100.00
22755;BME280;11544;42.020;23.094;2022-09-28T04:10:50;96320.38;;;15.87;100.00
22755;BME280;11544;42.020;23.094;2022-09-28T04:13:16;96313.47;;;15.74;100.00
22755;BME280;11544;42.020;23.094;2022-09-28T04:15:42;96304.63;;;14.98;100.00
22755;BME280;11544;42.020;23.094;2022-09-28T04:18:10;96305.03;;;15.04;100.00
22755;BME280;11544;42.020;23.094;2022-09-28T04:21:03;96298.81;;;14.67;100.00
22755;BME280;11544;42.020;23.094;2022-09-28T04:23:38;96296.09;;;15.58;100.00
22755;BME280;11544;42.020;23.094;2022-09-28T04:26:06;96295.59;;;15.53;100.00
22755;BME280;11544;42.020;23.094;2022-09-28T04:28:33;96304.28;;;14.77;100.00
22755;BME280;11544;42.020;23.094;2022-09-28T04:31:20;96310.09;;;15.20;100.00
22755;BME280;11544;42.020;23.094;2022-09-28T04:33:46;96314.09;;;15.39;100.00
22755;BME280;11544;42.020;23.094;2022-09-28T04:36:12;96320.31;;;14.45;100.00
22755;BME280;11544;42.020;23.094;2022-09-28T04:38:38;96330.81;;;14.18;100.00
22755;BME280;11544;42.020;23.094;2022-09-28T04:41:05;96330.84;;;14.04;100.00
22755;BME280;11544;42.020;23.094;2022-09-28T04:43:32;96313.53;;;14.28;100.00
22755;BME280;11544;42.020;23.094;2022-09-28T04:45:59;96332.19;;;14.24;100.00
22755;BME280;11544;42.020;23.094;2022-09-28T04:48:30;96330.44;;;14.10;100.00
22755;BME280;11544;42.020;23.094;2022-09-28T04:51:07;96338.34;;;13.95;100.00
22755;BME280;11544;42.020;23.094;2022-09-28T04:53:33;96340.06;;;13.82;100.00
22755;BME280;11544;42.020;23.094;2022-09-28T04:56:06;96338.53;;;13.92;100.00
22755;BME280;11544;42.020;23.094;2022-09-28T04:58:34;96342.78;;;14.08;100.00
22755;BME280;11544;42.020;23.094;2022-09-28T05:01:02;96350.03;;;14.46;100.00
22755;BME280;11544;42.020;23.094;2022-09-28T05:03:48;96357.69;;;14.49;100.00
22755;BME280;11544;42.020;23.094;2022-09-28T05:06:32;96359.09;;;14.13;100.00
22755;BME280;11544;42.020;23.094;2022-09-28T05:09:03;96360.34;;;14.34;100.00
22755;BME280;11544;42.020;23.094;2022-09-28T05:11:28;96356.66;;;13.95;100.00
22755;BME280;11544;42.020;23.094;2022-09-28T05:13:54;96367.34;;;14.48;100.00
22755;BME280;11544;42.020;23.094;2022-09-28T05:16:20;96368.34;;;15.00;100.00
22755;BME280;11544;42.020;23.094;2022-09-28T05:19:05;96372.69;;;14.74;100.00
22755;BME280;11544;42.020;23.094;2022-09-28T05:21:31;96373.34;;;14.90;100.00
22755;BME280;11544;42.020;23.094;2022-09-28T05:23:57;96367.84;;;14.68;100.00
22755;BME280;11544;42.020;23.094;2022-09-28T05:26:23;96368.28;;;14.74;100.00
22755;BME280;11544;42.020;23.094;2022-09-28T05:28:49;96373.78;;;14.97;100.00
22755;BME280;11544;42.020;23.094;2022-09-28T05:31:34;96373.44;;;15.29;100.00
22755;BME280;11544;42.020;23.094;2022-09-28T05:34:09;96374.41;;;15.40;100.00
22755;BME280;11544;42.020;23.094;2022-09-28T05:36:35;96362.91;;;15.03;100.00
22755;BME280;11544;42.020;23.094;2022-09-28T05:39:01;96362.81;;;14.65;100.00
22755;BME280;11544;42.020;23.094;2022-09-28T05:41:28;96357.03;;;14.45;100.00
22755;BME280;11544;42.020;23.094;2022-09-28T05:43:54;96350.72;;;15.02;100.00
22755;BME280;11544;42.020;23.094;2022-09-28T05:46:20;96354.06;;;14.91;100.00
22755;BME280;11544;42.020;23.094;2022-09-28T05:48:49;96352.97;;;15.34;100.00
22755;BME280;11544;42.020;23.094;2022-09-28T05:51:17;96359.56;;;15.39;100.00
22755;BME280;11544;42.020;23.094;2022-09-28T05:53:43;96350.31;;;15.21;100.00
22755;BME280;11544;42.020;23.094;2022-09-28T05:56:09;96352.09;;;15.84;100.00
22755;BME280;11544;42.020;23.094;2022-09-28T05:58:39;96352.41;;;15.67;100.00
22755;BME280;11544;42.020;23.094;2022-09-28T06:01:06;96357.03;;;15.89;100.00
22755;BME280;11544;42.020;23.094;2022-09-28T06:03:32;96358.59;;;15.66;100.00
22755;BME280;11544;42.020;23.094;2022-09-28T06:05:59;96369.41;;;15.10;100.00
22755;BME280;11544;42.020;23.094;2022-09-28T06:08:26;96375.28;;;15.14;100.00
22755;BME280;11544;42.020;23.094;2022-09-28T06:11:06;96369.94;;;15.02;100.00
22755;BME280;11544;42.020;23.094;2022-09-28T06:13:32;96364.91;;;15.25;100.00
22755;BME280;11544;42.020;23.094;2022-09-28T06:15:58;96348.41;;;16.00;100.00
22755;BME280;11544;42.020;23.094;2022-09-28T06:18:25;96347.09;;;15.43;100.00
22755;BME280;11544;42.020;23.094;2022-09-28T06:21:20;96361.78;;;15.20;100.00
22755;BME280;11544;42.020;23.094;2022-09-28T06:23:46;96363.97;;;15.39;100.00
22755;BME280;11544;42.020;23.094;2022-09-28T06:26:11;96360.72;;;15.22;100.00
22755;BME280;11544;42.020;23.094;2022-09-28T06:28:38;96352.09;;;15.97;100.00
22755;BME280;11544;42.020;23.094;2022-09-28T06:31:04;96339.34;;;16.41;100.00
22755;BME280;11544;42.020;23.094;2022-09-28T06:33:38;96321.28;;;16.96;100.00
22755;BME280;11544;42.020;23.094;2022-09-28T06:36:08;96309.91;;;17.53;100.00
22755;BME280;11544;42.020;23.094;2022-09-28T06:38:34;96311.78;;;18.18;100.00
22755;BME280;11544;42.020;23.094;2022-09-28T06:41:02;96300.59;;;18.81;100.00
22755;BME280;11544;42.020;23.094;2022-09-28T06:43:28;96298.16;;;19.10;100.00
22755;BME280;11544;42.020;23.094;2022-09-28T06:46:20;96275.38;;;19.40;96.93
22755;BME280;11544;42.020;23.094;2022-09-28T06:48:49;96271.84;;;19.60;94.21
22755;BME280;11544;42.020;23.094;2022-09-28T06:51:19;96269.78;;;19.95;90.90
22755;BME280;11544;42.020;23.094;2022-09-28T06:54:08;96283.47;;;19.69;91.43
22755;BME280;11544;42.020;23.094;2022-09-28T06:57:06;96271.09;;;19.49;90.18
22755;BME280;11544;42.020;23.094;2022-09-28T06:59:32;96271.50;;;19.75;91.54
22755;BME280;11544;42.020;23.094;2022-09-28T07:01:59;96266.03;;;19.97;89.64
22755;BME280;11544;42.020;23.094;2022-09-28T07:05:03;96270.50;;;20.06;89.11
22755;BME280;11544;42.020;23.094;2022-09-28T07:07:48;96284.38;;;19.58;90.83
22755;BME280;11544;42.020;23.094;2022-09-28T07:10:35;96271.66;;;20.43;87.38
22755;BME280;11544;42.020;23.094;2022-09-28T07:13:25;96272.88;;;20.19;87.62
22755;BME280;11544;42.020;23.094;2022-09-28T07:15:58;96281.06;;;19.35;90.40
22755;BME280;11544;42.020;23.094;2022-09-28T07:18:25;96270.31;;;20.68;89.59
22755;BME280;11544;42.020;23.094;2022-09-28T07:20:54;96250.81;;;21.26;84.08
22755;BME280;11544;42.020;23.094;2022-09-28T07:23:22;96255.56;;;21.42;82.57
22755;BME280;11544;42.020;23.094;2022-09-28T07:26:06;96257.22;;;21.80;80.26
22755;BME280;11544;42.020;23.094;2022-09-28T07:28:42;96257.72;;;21.09;82.08
22755;BME280;11544;42.020;23.094;2022-09-28T07:31:24;96260.41;;;21.84;80.96
22755;BME280;11544;42.020;23.094;2022-09-28T07:34:16;96256.22;;;21.53;80.22
22755;BME280;11544;42.020;23.094;2022-09-28T07:37:01;96258.78;;;22.01;79.12
22755;BME280;11544;42.020;23.094;2022-09-28T07:39:27;96259.38;;;21.94;78.21
22755;BME280;11544;42.020;23.094;2022-09-28T07:41:54;96242.72;;;23.28;71.44
22755;BME280;11544;42.020;23.094;2022-09-28T07:44:20;96251.56;;;22.74;72.04
22755;BME280;11544;42.020;23.094;2022-09-28T07:46:49;96246.44;;;22.55;72.15
22755;BME280;11544;42.020;23.094;2022-09-28T07:49:41;96242.56;;;22.31;73.67
22755;BME280;11544;42.020;23.094;2022-09-28T07:52:15;96238.78;;;23.14;70.13
22755;BME280;11544;42.020;23.094;2022-09-28T07:55:00;96234.75;;;23.36;67.38
22755;BME280;11544;42.020;23.094;2022-09-28T07:57:46;96237.03;;;23.22;70.78
22755;BME280;11544;42.020;23.094;2022-09-28T08:00:21;96232.13;;;23.10;70.27
22755;BME280;11544;42.020;23.094;2022-09-28T08:02:46;96241.91;;;22.91;71.45
22755;BME280;11544;42.020;23.094;2022-09-28T08:05:18;96237.44;;;23.70;67.01
22755;BME280;11544;42.020;23.094;2022-09-28T08:07:45;96236.75;;;23.60;68.00
22755;BME280;11544;42.020;23.094;2022-09-28T08:10:11;96231.91;;;23.29;69.96
22755;BME280;11544;42.020;23.094;2022-09-28T08:12:58;96232.28;;;23.08;69.98
22755;BME280;11544;42.020;23.094;2022-09-28T08:15:39;96246.06;;;22.50;72.37
22755;BME280;11544;42.020;23.094;2022-09-28T08:18:14;96250.78;;;21.83;75.29
22755;BME280;11544;42.020;23.094;2022-09-28T08:20:40;96256.00;;;22.02;76.84
22755;BME280;11544;42.020;23.094;2022-09-28T08:23:25;96262.03;;;21.94;75.92
22755;BME280;11544;42.020;23.094;2022-09-28T08:25:51;96266.59;;;22.30;75.40
22755;BME280;11544;42.020;23.094;2022-09-28T08:28:21;96258.72;;;22.10;74.54
22755;BME280;11544;42.020;23.094;2022-09-28T08:30:49;96255.03;;;21.66;76.30
22755;BME280;11544;42.020;23.094;2022-09-28T08:33:24;96257.56;;;21.95;74.11
22755;BME280;11544;42.020;23.094;2022-09-28T08:36:25;96249.88;;;21.92;74.30
22755;BME280;11544;42.020;23.094;2022-09-28T08:39:24;96249.31;;;21.43;76.16
22755;BME280;11544;42.020;23.094;2022-09-28T08:42:31;96243.91;;;21.62;75.64
22755;BME280;11544;42.020;23.094;2022-09-28T08:45:13;96238.78;;;22.06;72.74
22755;BME280;11544;42.020;23.094;2022-09-28T08:48:27;96245.94;;;21.41;74.11
22755;BME280;11544;42.020;23.094;2022-09-28T08:51:21;96242.88;;;21.35;75.23
22755;BME280;11544;42.020;23.094;2022-09-28T08:54:27;96237.09;;;21.60;75.05
22755;BME280;11544;42.020;23.094;2022-09-28T08:59:40;96216.84;;;21.86;72.40
22755;BME280;11544;42.020;23.094;2022-09-28T09:02:18;96210.28;;;22.08;70.60
22755;BME280;11544;42.020;23.094;2022-09-28T09:04:46;96197.84;;;22.80;66.60
22755;BME280;11544;42.020;23.094;2022-09-28T09:10:37;96182.03;;;23.23;60.12
22755;BME280;11544;42.020;23.094;2022-09-28T09:18:55;96182.38;;;23.28;53.46
22755;BME280;11544;42.020;23.094;2022-09-28T09:21:39;96176.59;;;23.33;55.92
22755;BME280;11544;42.020;23.094;2022-09-28T09:25:07;96177.84;;;23.97;49.46
22755;BME280;11544;42.020;23.094;2022-09-28T09:27:24;96173.94;;;24.75;48.54
22755;BME280;11544;42.020;23.094;2022-09-28T09:30:10;96180.09;;;24.43;47.60
22755;BME280;11544;42.020;23.094;2022-09-28T09:35:57;96181.44;;;24.96;44.79
22755;BME280;11544;42.020;23.094;2022-09-28T09:39:15;96185.91;;;25.04;44.44
22755;BME280;11544;42.020;23.094;2022-09-28T09:42:33;96180.38;;;25.30;44.82
22755;BME280;11544;42.020;23.094;2022-09-28T09:45:27;96186.63;;;25.53;44.21
22755;BME280;11544;42.020;23.094;2022-09-28T09:48:24;96182.69;;;25.41;42.13
22755;BME280;11544;42.020;23.094;2022-09-28T09:50:57;96180.38;;;25.77;42.59
22755;BME280;11544;42.020;23.094;2022-09-28T09:53:34;96173.75;;;25.18;42.29
22755;BME280;11544;42.020;23.094;2022-09-28T09:56:18;96181.94;;;24.59;43.41
22755;BME280;11544;42.020;23.094;2022-09-28T09:59:10;96179.41;;;24.33;44.64
22755;BME280;11544;42.020;23.094;2022-09-28T10:02:14;96175.41;;;24.20;45.78
22755;BME280;11544;42.020;23.094;2022-09-28T10:07:48;96166.44;;;24.87;44.10
22755;BME280;11544;42.020;23.094;2022-09-28T10:10:23;96175.19;;;25.45;44.71
22755;BME280;11544;42.020;23.094;2022-09-28T10:12:52;96173.47;;;25.52;43.68
22755;BME280;11544;42.020;23.094;2022-09-28T10:15:26;96173.75;;;25.18;43.73
22755;BME280;11544;42.020;23.094;2022-09-28T10:18:15;96166.13;;;24.41;45.67
22755;BME280;11544;42.020;23.094;2022-09-28T10:21:02;96157.47;;;24.71;44.98
22755;BME280;11544;42.020;23.094;2022-09-28T10:23:51;96154.81;;;24.71;44.05
22755;BME280;11544;42.020;23.094;2022-09-28T10:26:33;96152.41;;;25.09;43.37
22755;BME280;11544;42.020;23.094;2022-09-28T10:29:03;96156.59;;;25.60;42.29
22755;BME280;11544;42.020;23.094;2022-09-28T10:34:09;96147.28;;;25.55;42.19
22755;BME280;11544;42.020;23.094;2022-09-28T10:36:54;96142.53;;;25.74;42.41
22755;BME280;11544;42.020;23.094;2022-09-28T10:39:35;96134.78;;;25.56;42.18
22755;BME280;11544;42.020;23.094;2022-09-28T10:42:16;96139.38;;;25.70;42.42
22755;BME280;11544;42.020;23.094;2022-09-28T10:45:01;96135.28;;;25.91;41.63
22755;BME280;11544;42.020;23.094;2022-09-28T10:47:49;96142.22;;;25.69;41.38
22755;BME280;11544;42.020;23.094;2022-09-28T10:50:22;96137.97;;;26.14;41.68
22755;BME280;11544;42.020;23.094;2022-09-28T10:53:10;96129.28;;;26.20;42.44
22755;BME280;11544;42.020;23.094;2022-09-28T10:58:39;96125.03;;;25.71;41.93
22755;BME280;11544;42.020;23.094;2022-09-28T11:01:23;96124.72;;;25.66;41.93
22755;BME280;11544;42.020;23.094;2022-09-28T11:03:56;96116.28;;;25.86;41.92
22755;BME280;11544;42.020;23.094;2022-09-28T11:06:35;96120.59;;;25.55;43.09
22755;BME280;11544;42.020;23.094;2022-09-28T11:09:05;96110.59;;;25.10;42.14
22755;BME280;11544;42.020;23.094;2022-09-28T11:11:40;96114.06;;;25.58;41.89
22755;BME280;11544;42.020;23.094;2022-09-28T11:17:16;96115.75;;;25.59;40.82
22755;BME280;11544;42.020;23.094;2022-09-28T11:19:44;96121.16;;;25.43;39.87
22755;BME280;11544;42.020;23.094;2022-09-28T11:22:28;96112.44;;;25.88;40.33
22755;BME280;11544;42.020;23.094;2022-09-28T11:30:24;96105.81;;;24.97;41.92
22755;BME280;11544;42.020;23.094;2022-09-28T11:33:18;96105.78;;;25.05;42.34
22755;BME280;11544;42.020;23.094;2022-09-28T11:38:42;96096.69;;;24.59;41.14
22755;BME280;11544;42.020;23.094;2022-09-28T11:47:18;96089.13;;;25.82;39.81
22755;BME280;11544;42.020;23.094;2022-09-28T11:50:35;96094.44;;;25.82;40.33
22755;BME280;11544;42.020;23.094;2022-09-28T11:53:03;96091.91;;;25.89;39.68
22755;BME280;11544;42.020;23.094;2022-09-28T11:58:26;96088.91;;;25.84;39.63
22755;BME280;11544;42.020;23.094;2022-09-28T12:04:12;96087.31;;;25.74;39.16
22755;BME280;11544;42.020;23.094;2022-09-28T12:06:45;96088.44;;;25.49;39.98
22755;BME280;11544;42.020;23.094;2022-09-28T12:09:23;96083.91;;;25.58;40.47
22755;BME280;11544;42.020;23.094;2022-09-28T12:12:03;96074.53;;;24.83;41.29
22755;BME280;11544;42.020;23.094;2022-09-28T12:14:44;96078.56;;;24.54;41.29
22755;BME280;11544;42.020;23.094;2022-09-28T12:19:54;96073.97;;;25.43;40.98
22755;BME280;11544;42.020;23.094;2022-09-28T12:22:35;96076.63;;;26.06;39.68
22755;BME280;11544;42.020;23.094;2022-09-28T12:25:02;96075.19;;;25.95;38.93
22755;BME280;11544;42.020;23.094;2022-09-28T12:27:40;96080.69;;;25.70;40.04
22755;BME280;11544;42.020;23.094;2022-09-28T12:30:14;96065.38;;;25.64;40.00
22755;BME280;11544;42.020;23.094;2022-09-28T12:38:37;96074.28;;;25.80;40.98
22755;BME280;11544;42.020;23.094;2022-09-28T12:41:25;96071.22;;;26.14;40.92
22755;BME280;11544;42.020;23.094;2022-09-28T12:50:05;96079.06;;;25.84;40.20
22755;BME280;11544;42.020;23.094;2022-09-28T12:57:58;96075.31;;;25.39;41.31
22755;BME280;11544;42.020;23.094;2022-09-28T13:00:33;96080.78;;;25.06;42.07
22755;BME280;11544;42.020;23.094;2022-09-28T13:03:32;96084.97;;;25.01;42.24
22755;BME280;11544;42.020;23.094;2022-09-28T13:06:28;96086.66;;;24.93;43.36
22755;BME280;11544;42.020;23.094;2022-09-28T13:14:22;96085.53;;;24.71;42.81
22755;BME280;11544;42.020;23.094;2022-09-28T13:16:56;96088.75;;;25.14;42.26
22755;BME280;11544;42.020;23.094;2022-09-28T13:19:49;96092.44;;;25.05;42.04
22755;BME280;11544;42.020;23.094;2022-09-28T13:25:15;96090.44;;;24.99;42.83
22755;BME280;11544;42.020;23.094;2022-09-28T13:27:50;96082.13;;;24.94;43.05
22755;BME280;11544;42.020;23.094;2022-09-28T13:30:17;96077.22;;;25.30;43.37
22755;BME280;11544;42.020;23.094;2022-09-28T13:32:44;96095.84;;;25.39;42.95
22755;BME280;11544;42.020;23.094;2022-09-28T13:35:16;96083.94;;;25.10;44.44
22755;BME280;11544;42.020;23.094;2022-09-28T13:37:46;96084.78;;;25.02;44.29
22755;BME280;11544;42.020;23.094;2022-09-28T13:40:12;96085.81;;;24.93;45.65
22755;BME280;11544;42.020;23.094;2022-09-28T13:47:49;96080.50;;;25.41;44.06
22755;BME280;11544;42.020;23.094;2022-09-28T13:50:27;96077.91;;;25.55;43.26
22755;BME280;11544;42.020;23.094;2022-09-28T13:55:52;96070.84;;;25.40;43.38
22755;BME280;11544;42.020;23.094;2022-09-28T13:58:30;96066.19;;;25.33;43.13
22755;BME280;11544;42.020;23.094;2022-09-28T14:01:26;96057.41;;;25.25;42.50
22755;BME280;11544;42.020;23.094;2022-09-28T14:04:17;96061.53;;;25.27;42.75
22755;BME280;11544;42.020;23.094;2022-09-28T14:07:10;96059.09;;;25.18;43.52
22755;BME280;11544;42.020;23.094;2022-09-28T14:09:41;96058.09;;;25.19;42.79
22755;BME280;11544;42.020;23.094;2022-09-28T14:14:55;96060.03;;;24.77;43.55
22755;BME280;11544;42.020;23.094;2022-09-28T14:19:52;96047.34;;;24.96;42.98
22755;BME280;11544;42.020;23.094;2022-09-28T14:22:27;96057.09;;;25.11;43.02
22755;BME280;11544;42.020;23.094;2022-09-28T14:30:19;96052.56;;;25.28;43.10
22755;BME280;11544;42.020;23.094;2022-09-28T14:32:58;96050.34;;;25.32;41.96
22755;BME280;11544;42.020;23.094;2022-09-28T14:35:29;96052.66;;;24.96;42.03
22755;BME280;11544;42.020;23.094;2022-09-28T14:38:13;96052.31;;;24.99;42.59
22755;BME280;11544;42.020;23.094;2022-09-28T14:56:45;96053.38;;;24.73;43.31
22755;BME280;11544;42.020;23.094;2022-09-28T14:59:20;96058.75;;;24.65;44.02
22755;BME280;11544;42.020;23.094;2022-09-28T15:02:06;96050.75;;;24.65;43.59
22755;BME280;11544;42.020;23.094;2022-09-28T15:04:40;96057.22;;;24.70;43.87
22755;BME280;11544;42.020;23.094;2022-09-28T15:07:22;96060.19;;;24.76;43.25
22755;BME280;11544;42.020;23.094;2022-09-28T15:09:53;96063.06;;;24.74;44.26
22755;BME280;11544;42.020;23.094;2022-09-28T15:12:29;96070.41;;;24.64;44.45
22755;BME280;11544;42.020;23.094;2022-09-28T15:15:02;96071.75;;;24.51;44.97
22755;BME280;11544;42.020;23.094;2022-09-28T15:17:37;96074.41;;;24.51;44.98
22755;BME280;11544;42.020;23.094;2022-09-28T15:20:26;96071.72;;;24.43;45.30
22755;BME280;11544;42.020;23.094;2022-09-28T15:22:59;96068.06;;;24.28;45.90
22755;BME280;11544;42.020;23.094;2022-09-28T15:25:26;96075.75;;;24.15;46.16
22755;BME280;11544;42.020;23.094;2022-09-28T15:27:58;96086.53;;;23.97;46.59
22755;BME280;11544;42.020;23.094;2022-09-28T15:30:57;96089.22;;;23.88;47.02
22755;BME280;11544;42.020;23.094;2022-09-28T15:33:28;96085.19;;;23.84;47.23
22755;BME280;11544;42.020;23.094;2022-09-28T15:36:29;96086.53;;;23.80;48.09
22755;BME280;11544;42.020;23.094;2022-09-28T15:41:27;96083.88;;;23.88;47.39
22755;BME280;11544;42.020;23.094;2022-09-28T15:47:03;96085.81;;;23.70;47.85